Time;durP1;ratioP1;P1;durP2;ratioP2;P2;SDS_P1;SDS_P2;PMS_P1;PMS_P2;Temp;Humidity;BMP_temperature;BMP_pressure;BME280_temperature;BME280_humidity;BME280_pressure;Samples;Min_cycle;Max_cycle;Signal;HPM_P1;HPM_P2
2022/09/05 00:00:10;;;;;;;16.25;2.78;;;27.00;99.90;;;;;;5032532;28;20041;-71
2022/09/05 00:03:15;;;;;;;13.68;2.92;;;27.10;99.90;;;;;;5032477;28;20036;-71
2022/09/05 00:05:49;;;;;;;22.00;3.00;;;27.20;99.90;;;;;;5031691;28;20046;-70
2022/09/05 00:08:24;;;;;;;17.90;2.92;;;27.20;99.90;;;;;;5031494;28;20107;-71
2022/09/05 00:10:57;;;;;;;17.85;2.95;;;27.30;99.90;;;;;;5031507;28;20018;-71
2022/09/05 00:13:28;;;;;;;22.17;3.17;;;27.30;99.90;;;;;;5031472;28;20101;-71
2022/09/05 00:16:12;;;;;;;21.08;2.97;;;27.30;99.90;;;;;;5031057;28;20051;-71
2022/09/05 00:18:44;;;;;;;19.90;3.08;;;27.30;99.90;;;;;;5031333;28;20095;-71
2022/09/05 00:21:40;;;;;;;18.88;2.78;;;27.30;99.90;;;;;;5031290;28;20018;-71
2022/09/05 00:24:48;;;;;;;14.40;3.10;;;27.30;99.90;;;;;;5031243;28;20037;-71
2022/09/05 00:27:38;;;;;;;17.73;2.80;;;27.40;99.90;;;;;;5027158;28;20124;-71
2022/09/05 00:30:16;;;;;;;14.50;2.42;;;27.30;99.90;;;;;;5030986;28;20112;-71
2022/09/05 00:32:42;;;;;;;13.32;2.90;;;27.30;99.90;;;;;;5029380;28;20029;-71
2022/09/05 00:35:37;;;;;;;13.82;2.40;;;27.30;99.90;;;;;;5029197;28;20028;-71
2022/09/05 00:38:17;;;;;;;15.97;2.90;;;27.30;99.90;;;;;;5030958;28;20116;-72
2022/09/05 00:40:55;;;;;;;20.58;2.60;;;27.30;99.90;;;;;;5030927;28;20454;-71
2022/09/05 00:43:31;;;;;;;13.45;2.60;;;27.20;99.90;;;;;;5030867;28;20030;-71
2022/09/05 00:46:13;;;;;;;18.30;3.20;;;27.30;99.90;;;;;;5030706;28;20421;-71
2022/09/05 00:48:49;;;;;;;17.33;3.00;;;27.30;99.90;;;;;;5031076;28;20153;-71
2022/09/05 00:51:33;;;;;;;13.32;2.97;;;27.20;99.90;;;;;;5030824;28;20112;-71
2022/09/05 00:54:17;;;;;;;15.48;2.92;;;27.20;99.90;;;;;;5030748;28;20025;-71
2022/09/05 00:56:57;;;;;;;15.75;3.38;;;27.20;99.90;;;;;;5030608;28;20117;-71
2022/09/05 00:59:23;;;;;;;13.77;2.88;;;27.20;99.90;;;;;;5030794;28;20109;-71
2022/09/05 01:02:05;;;;;;;16.23;2.78;;;27.30;99.90;;;;;;5030285;28;20504;-71
2022/09/05 01:04:46;;;;;;;23.00;3.60;;;27.20;99.90;;;;;;5030420;28;20030;-71
2022/09/05 01:07:42;;;;;;;20.05;3.33;;;27.20;99.90;;;;;;5030445;28;20382;-71
2022/09/05 01:10:37;;;;;;;17.23;3.70;;;27.10;99.90;;;;;;5030447;28;20057;-71
2022/09/05 01:13:37;;;;;;;16.52;2.92;;;27.00;99.90;;;;;;5027704;28;20152;-71
2022/09/05 01:16:35;;;;;;;17.30;3.90;;;26.90;99.90;;;;;;5030077;28;20115;-71
2022/09/05 01:19:29;;;;;;;21.38;3.13;;;26.80;99.90;;;;;;5008605;28;20045;-71
2022/09/05 01:22:15;;;;;;;13.75;3.15;;;26.80;99.90;;;;;;5008221;28;20493;-71
2022/09/05 01:25:10;;;;;;;16.33;3.33;;;26.80;99.90;;;;;;5008317;28;20034;-71
2022/09/05 01:27:44;;;;;;;18.08;3.20;;;26.70;99.90;;;;;;5008295;28;20433;-71
2022/09/05 01:31:00;;;;;;;16.48;3.50;;;26.70;99.90;;;;;;5008080;28;20049;-71
2022/09/05 01:33:26;;;;;;;19.80;3.90;;;26.60;99.90;;;;;;4949609;29;20027;-71
2022/09/05 01:36:17;;;;;;;15.55;3.53;;;26.60;99.90;;;;;;4949265;29;20099;-71
2022/09/05 01:39:03;;;;;;;18.00;4.05;;;26.60;99.90;;;;;;4949893;29;20058;-71
2022/09/05 01:41:55;;;;;;;14.77;3.97;;;26.70;99.90;;;;;;4949252;29;20035;-72
2022/09/05 01:44:46;;;;;;;17.27;4.60;;;26.60;99.90;;;;;;4940236;29;20058;-71
2022/09/05 01:47:36;;;;;;;20.75;5.18;;;26.70;99.90;;;;;;4949658;29;20503;-71
2022/09/05 01:50:20;;;;;;;15.70;4.55;;;26.70;99.90;;;;;;4949679;29;20039;-71
2022/09/05 01:53:00;;;;;;;17.80;4.38;;;26.70;99.90;;;;;;4949645;29;20032;-70
2022/09/05 01:55:35;;;;;;;20.00;5.22;;;26.70;99.90;;;;;;4949334;28;20456;-71
2022/09/05 01:58:25;;;;;;;19.63;5.10;;;26.70;99.90;;;;;;4948944;28;20039;-71
2022/09/05 02:00:56;;;;;;;20.73;5.45;;;26.70;99.90;;;;;;4949401;29;20023;-71
2022/09/05 02:03:31;;;;;;;17.15;5.60;;;26.60;99.90;;;;;;4962230;28;20049;-71
2022/09/05 02:06:23;;;;;;;23.40;5.80;;;26.60;99.90;;;;;;5029674;28;20117;-71
2022/09/05 02:09:19;;;;;;;26.13;5.80;;;26.60;99.90;;;;;;5029262;28;20095;-71
2022/09/05 02:11:55;;;;;;;20.90;5.55;;;26.60;99.90;;;;;;5029478;28;20472;-71
2022/09/05 02:14:51;;;;;;;19.75;5.22;;;26.60;99.90;;;;;;5029441;28;20441;-71
2022/09/05 02:17:45;;;;;;;15.13;4.88;;;26.60;99.90;;;;;;5029626;28;20037;-71
2022/09/05 02:20:27;;;;;;;17.35;5.43;;;26.60;99.90;;;;;;5029517;28;20021;-71
2022/09/05 02:23:04;;;;;;;21.27;5.57;;;26.60;99.90;;;;;;5029699;28;20033;-71
2022/09/05 02:25:59;;;;;;;19.10;5.00;;;26.60;99.90;;;;;;5029385;28;20044;-71
2022/09/05 02:28:48;;;;;;;20.85;5.32;;;26.60;99.90;;;;;;5029258;28;20052;-71
2022/09/05 02:31:47;;;;;;;23.33;5.55;;;26.60;99.90;;;;;;5029610;28;20033;-71
2022/09/05 02:34:52;;;;;;;21.33;5.22;;;26.50;99.90;;;;;;5029301;28;20382;-71
2022/09/05 02:37:34;;;;;;;27.00;5.07;;;26.50;99.90;;;;;;5029231;28;20041;-71
2022/09/05 02:40:05;;;;;;;23.20;5.57;;;26.50;99.90;;;;;;5029320;28;20141;-71
2022/09/05 02:42:46;;;;;;;18.88;4.63;;;26.40;99.90;;;;;;5027697;28;20067;-71
2022/09/05 02:45:20;;;;;;;21.85;5.57;;;26.40;99.90;;;;;;5029473;28;20142;-71
2022/09/05 02:48:07;;;;;;;19.67;4.93;;;26.40;99.90;;;;;;5029397;28;20017;-71
2022/09/05 02:50:48;;;;;;;18.38;4.82;;;26.40;99.90;;;;;;5029436;28;20030;-71
2022/09/05 02:53:18;;;;;;;20.27;5.05;;;26.40;99.90;;;;;;5031187;28;20075;-71
2022/09/05 02:55:58;;;;;;;19.45;4.85;;;26.40;99.90;;;;;;5031026;28;20126;-71
2022/09/05 02:58:42;;;;;;;20.58;4.95;;;26.40;99.90;;;;;;5030755;28;20032;-71
2022/09/05 03:01:33;;;;;;;18.27;4.68;;;26.40;99.90;;;;;;5030575;28;20390;-71
2022/09/05 03:04:37;;;;;;;17.75;4.03;;;26.40;99.90;;;;;;5030522;28;20307;-71
2022/09/05 03:07:10;;;;;;;18.33;4.35;;;26.40;99.90;;;;;;5019241;28;20037;-71
2022/09/05 03:10:29;;;;;;;17.38;4.55;;;26.40;99.90;;;;;;5032432;28;20109;-71
2022/09/05 03:13:16;;;;;;;16.17;4.50;;;26.30;99.90;;;;;;5021627;28;20030;-71
2022/09/05 03:15:54;;;;;;;17.80;3.80;;;26.30;99.90;;;;;;5033751;28;20109;-71
2022/09/05 03:18:41;;;;;;;19.20;4.13;;;26.30;99.90;;;;;;5033392;28;20069;-71
2022/09/05 03:21:50;;;;;;;12.85;3.58;;;26.40;99.90;;;;;;5034136;28;20045;-71
2022/09/05 03:24:57;;;;;;;16.50;3.60;;;26.30;99.90;;;;;;5034467;28;20022;-71
2022/09/05 03:28:07;;;;;;;20.33;4.05;;;26.30;99.90;;;;;;5012107;28;20455;-71
2022/09/05 03:31:02;;;;;;;16.08;3.40;;;26.30;99.90;;;;;;5012545;28;20046;-71
2022/09/05 03:33:46;;;;;;;18.07;3.80;;;26.30;99.90;;;;;;5012145;28;20038;-71
2022/09/05 03:36:59;;;;;;;17.30;3.50;;;26.30;99.90;;;;;;5011789;28;20664;-71
2022/09/05 03:40:02;;;;;;;16.83;3.58;;;26.40;99.90;;;;;;4995544;28;20037;-71
2022/09/05 03:43:12;;;;;;;18.20;3.72;;;26.40;99.90;;;;;;5012111;28;20030;-71
2022/09/05 03:45:52;;;;;;;12.93;3.30;;;26.40;99.90;;;;;;5011977;28;20191;-71
2022/09/05 03:48:27;;;;;;;17.45;3.08;;;26.40;99.90;;;;;;5012140;28;20044;-74
2022/09/05 03:51:22;;;;;;;16.98;3.72;;;26.30;99.90;;;;;;5011987;28;20479;-71
2022/09/05 03:54:07;;;;;;;17.33;3.65;;;26.30;99.90;;;;;;5011560;28;20037;-71
2022/09/05 03:57:00;;;;;;;20.95;3.88;;;26.30;99.90;;;;;;5012284;28;20096;-72
2022/09/05 04:00:05;;;;;;;15.07;3.67;;;26.20;99.90;;;;;;5033881;28;20028;-71
2022/09/05 04:02:37;;;;;;;17.55;4.03;;;26.20;99.90;;;;;;5033488;28;20021;-71
2022/09/05 04:05:09;;;;;;;16.17;3.42;;;26.20;99.90;;;;;;5033375;28;20327;-71
2022/09/05 04:07:49;;;;;;;16.38;3.47;;;26.20;99.90;;;;;;5033662;28;20105;-71
2022/09/05 04:10:28;;;;;;;17.15;3.75;;;26.20;99.90;;;;;;5033572;28;20108;-71
2022/09/05 04:12:58;;;;;;;12.77;3.33;;;26.10;99.90;;;;;;5033340;28;20428;-71
2022/09/05 04:15:36;;;;;;;19.63;4.00;;;26.00;99.90;;;;;;5033289;28;20025;-72
2022/09/05 04:18:13;;;;;;;15.63;3.50;;;26.00;99.90;;;;;;5034354;28;20061;-71
2022/09/05 04:20:59;;;;;;;17.77;4.10;;;26.10;99.90;;;;;;5034195;28;20048;-71
2022/09/05 04:23:45;;;;;;;;;;;26.20;99.90;;;;;;5035633;28;20021;-71
2022/09/05 04:26:10;;;;;;;;;;;26.20;99.90;;;;;;5035105;28;19905;-71
2022/09/05 04:29:03;;;;;;;16.48;3.67;;;26.10;99.90;;;;;;5034094;28;20243;-71
2022/09/05 04:31:50;;;;;;;15.65;3.80;;;26.10;99.90;;;;;;5034911;28;20296;-71
2022/09/05 04:34:27;;;;;;;13.48;3.25;;;26.10;99.90;;;;;;5034686;28;20470;-71
2022/09/05 04:37:04;;;;;;;21.15;3.95;;;26.10;99.90;;;;;;5034605;28;20033;-71
2022/09/05 04:39:30;;;;;;;;;;;26.10;99.90;;;;;;5035448;28;20421;-71
2022/09/05 04:42:09;;;;;;;16.67;3.65;;;26.00;99.90;;;;;;5034387;28;20008;-71
2022/09/05 04:45:04;;;;;;;15.88;3.75;;;26.10;99.90;;;;;;5034243;28;20028;-71
2022/09/05 04:47:39;;;;;;;14.27;3.47;;;26.10;99.90;;;;;;5034439;28;20033;-71
2022/09/05 04:50:19;;;;;;;19.33;3.50;;;26.20;99.90;;;;;;5034522;28;20068;-71
2022/09/05 04:53:15;;;;;;;21.75;3.65;;;26.10;99.90;;;;;;5034670;28;20064;-71
2022/09/05 04:55:56;;;;;;;11.98;2.80;;;26.20;99.90;;;;;;5034298;28;20504;-71
2022/09/05 04:58:40;;;;;;;16.27;3.47;;;26.20;99.90;;;;;;5034296;28;20021;-71
2022/09/05 05:01:42;;;;;;;15.88;4.32;;;26.20;99.90;;;;;;5034405;28;20104;-71
2022/09/05 05:04:16;;;;;;;15.65;3.88;;;26.20;99.90;;;;;;5016289;28;21133;-71
2022/09/05 05:07:31;;;;;;;18.30;3.67;;;26.20;99.90;;;;;;5033845;28;20116;-71
2022/09/05 05:10:01;;;;;;;16.52;3.60;;;26.20;99.90;;;;;;5012409;28;20038;-70
2022/09/05 05:12:52;;;;;;;19.15;4.30;;;26.20;99.90;;;;;;5011590;28;20117;-71
2022/09/05 05:15:21;;;;;;;15.68;3.95;;;26.30;99.90;;;;;;4994723;28;20029;-71
2022/09/05 05:18:19;;;;;;;20.83;4.22;;;26.30;99.90;;;;;;5011162;28;20112;-71
2022/09/05 05:21:07;;;;;;;14.18;3.28;;;26.30;99.90;;;;;;5011473;28;20026;-74
2022/09/05 05:23:40;;;;;;;20.60;4.00;;;26.40;99.90;;;;;;5011575;28;20026;-71
2022/09/05 05:26:18;;;;;;;20.95;3.92;;;26.60;99.90;;;;;;5011045;28;20053;-71
2022/09/05 05:28:56;;;;;;;17.10;3.70;;;27.00;99.90;;;;;;5010962;28;20056;-72
2022/09/05 05:31:49;;;;;;;17.17;3.65;;;27.30;99.90;;;;;;4994098;28;20128;-72
2022/09/05 05:34:30;;;;;;;20.83;4.10;;;27.70;99.90;;;;;;5011369;28;20029;-72
2022/09/05 05:37:05;;;;;;;23.08;4.25;;;28.20;99.90;;;;;;5010961;28;20037;-71
2022/09/05 05:39:36;;;;;;;15.88;3.67;;;28.40;99.90;;;;;;5011059;28;20502;-72
2022/09/05 05:42:03;;;;;;;16.15;3.78;;;28.60;99.90;;;;;;5010885;28;20080;-72
2022/09/05 05:44:35;;;;;;;20.55;4.28;;;28.60;99.90;;;;;;4998646;28;20363;-71
2022/09/05 05:47:14;;;;;;;23.15;4.72;;;28.90;99.90;;;;;;5032567;28;20446;-71
2022/09/05 05:50:09;;;;;;;19.13;4.30;;;29.30;99.90;;;;;;5032793;28;20100;-71
2022/09/05 05:53:22;;;;;;;23.30;4.78;;;29.50;99.90;;;;;;5022707;28;20121;-71
2022/09/05 05:56:31;;;;;;;20.13;4.50;;;29.70;99.90;;;;;;5031706;28;20148;-72
2022/09/05 05:59:00;;;;;;;19.90;4.10;;;29.80;99.90;;;;;;5032404;28;20052;-71
2022/09/05 06:01:49;;;;;;;19.35;4.60;;;29.90;99.90;;;;;;5031942;28;20026;-71
2022/09/05 06:04:51;;;;;;;24.25;4.88;;;30.50;99.90;;;;;;5031583;28;20057;-71
2022/09/05 06:07:48;;;;;;;15.93;4.05;;;30.80;99.90;;;;;;5031919;28;20095;-71
2022/09/05 06:10:32;;;;;;;15.38;4.10;;;30.70;99.80;;;;;;5031887;28;20095;-71
2022/09/05 06:13:30;;;;;;;18.73;4.45;;;30.50;99.90;;;;;;5032219;28;20327;-71
2022/09/05 06:16:28;;;;;;;18.88;4.28;;;31.00;99.70;;;;;;5031970;28;20046;-71
2022/09/05 06:19:40;;;;;;;22.00;4.65;;;31.30;99.30;;;;;;5032094;28;20359;-71
2022/09/05 06:22:24;;;;;;;16.90;3.92;;;31.80;98.90;;;;;;5032429;28;20445;-72
2022/09/05 06:25:27;;;;;;;19.13;4.25;;;32.10;98.40;;;;;;5032048;28;20022;-72
2022/09/05 06:28:12;;;;;;;19.65;4.38;;;32.20;98.30;;;;;;5032320;28;20025;-73
2022/09/05 06:31:16;;;;;;;15.10;3.83;;;32.50;98.20;;;;;;5032630;28;20026;-72
2022/09/05 06:34:01;;;;;;;18.55;4.30;;;33.00;97.60;;;;;;5032364;28;20028;-72
2022/09/05 06:37:03;;;;;;;21.25;3.95;;;33.60;96.70;;;;;;5032170;28;20420;-72
2022/09/05 06:39:52;;;;;;;19.95;4.40;;;33.40;96.80;;;;;;5032795;28;20021;-72
2022/09/05 06:42:35;;;;;;;17.23;3.35;;;33.90;96.20;;;;;;5032718;28;20424;-72
2022/09/05 06:45:28;;;;;;;18.20;3.47;;;33.90;96.30;;;;;;5036436;28;20022;-72
2022/09/05 06:48:32;;;;;;;19.58;3.50;;;34.10;95.90;;;;;;5036150;28;20018;-72
2022/09/05 06:51:22;;;;;;;14.88;3.67;;;34.20;96.20;;;;;;5035988;28;20025;-73
2022/09/05 06:53:56;;;;;;;27.13;4.10;;;34.50;95.70;;;;;;5036459;28;20485;-73
2022/09/05 06:56:48;;;;;;;21.15;3.92;;;34.60;95.60;;;;;;5034514;28;20048;-72
2022/09/05 06:59:48;;;;;;;15.80;2.70;;;34.90;94.90;;;;;;5032171;28;20065;-72
2022/09/05 07:02:23;;;;;;;15.23;3.05;;;35.10;94.40;;;;;;5036024;28;20018;-72
2022/09/05 07:05:14;;;;;;;16.85;2.67;;;35.50;94.20;;;;;;5035903;28;20037;-72
2022/09/05 07:08:04;;;;;;;18.20;3.70;;;35.80;93.70;;;;;;5036234;28;20014;-73
2022/09/05 07:10:40;;;;;;;16.33;3.30;;;35.60;93.80;;;;;;5036218;28;20022;-73
2022/09/05 07:13:23;;;;;;;13.82;3.00;;;35.80;93.70;;;;;;5035638;28;20026;-73
2022/09/05 07:16:11;;;;;;;15.00;2.78;;;36.50;93.00;;;;;;5035841;28;20052;-73
2022/09/05 07:18:48;;;;;;;15.57;3.15;;;37.10;92.50;;;;;;5036267;28;20029;-73
2022/09/05 07:21:17;;;;;;;15.27;3.25;;;36.80;92.30;;;;;;5036114;28;20453;-72
2022/09/05 07:23:56;;;;;;;16.55;3.33;;;36.50;92.50;;;;;;5035877;28;20439;-73
2022/09/05 07:26:23;;;;;;;17.23;2.92;;;36.30;92.40;;;;;;5035941;28;20080;-73
2022/09/05 07:28:54;;;;;;;16.98;3.13;;;36.10;92.40;;;;;;5035039;28;20053;-73
2022/09/05 07:31:26;;;;;;;18.38;3.30;;;35.30;93.00;;;;;;5033655;28;20427;-71
2022/09/05 07:34:28;;;;;;;12.30;2.97;;;34.60;93.20;;;;;;5035125;28;20115;-71
2022/09/05 07:36:58;;;;;;;12.15;2.47;;;34.50;93.70;;;;;;5012840;28;20383;-72
2022/09/05 07:39:30;;;;;;;13.27;2.45;;;34.10;93.70;;;;;;5013312;28;20513;-72
2022/09/05 07:42:04;;;;;;;21.35;3.42;;;34.00;93.80;;;;;;5013408;28;20086;-72
2022/09/05 07:44:45;;;;;;;14.88;2.88;;;34.00;93.50;;;;;;5012851;28;20034;-73
2022/09/05 07:47:31;;;;;;;13.13;2.60;;;34.00;93.50;;;;;;5012747;28;20105;-71
2022/09/05 07:50:03;;;;;;;11.95;2.70;;;34.00;93.20;;;;;;5013043;28;20075;-74
2022/09/05 07:52:32;;;;;;;11.23;2.70;;;34.00;93.40;;;;;;4995488;28;20096;-73
2022/09/05 07:55:28;;;;;;;13.48;2.78;;;34.20;92.90;;;;;;5010435;28;20037;-73
2022/09/05 07:57:58;;;;;;;14.68;2.80;;;34.50;91.90;;;;;;5011686;28;20133;-73
2022/09/05 08:00:27;;;;;;;11.38;2.25;;;34.80;91.80;;;;;;5011699;28;20041;-73
2022/09/05 08:03:13;;;;;;;14.02;2.53;;;35.20;91.60;;;;;;5012087;28;20022;-71
2022/09/05 08:05:46;;;;;;;16.08;2.92;;;35.80;91.30;;;;;;5011754;28;20049;-71
2022/09/05 08:08:16;;;;;;;14.98;3.33;;;36.20;90.80;;;;;;5012079;28;20034;-73
2022/09/05 08:11:00;;;;;;;24.73;4.80;;;36.50;91.40;;;;;;4995305;28;20062;-72
2022/09/05 08:13:45;;;;;;;22.45;5.60;;;36.60;91.90;;;;;;5031822;28;20034;-72
2022/09/05 08:16:18;;;;;;;19.70;4.95;;;36.70;92.10;;;;;;5033701;28;20044;-72
2022/09/05 08:19:07;;;;;;;16.30;3.80;;;36.10;92.50;;;;;;5034176;28;20037;-73
2022/09/05 08:21:41;;;;;;;18.83;4.45;;;35.80;92.10;;;;;;5034257;28;20108;-73
2022/09/05 08:24:16;;;;;;;16.33;4.28;;;35.90;91.90;;;;;;5034043;28;20079;-72
2022/09/05 08:26:47;;;;;;;21.67;4.18;;;36.00;92.20;;;;;;5034275;28;20036;-72
2022/09/05 08:29:26;;;;;;;16.92;3.45;;;35.90;91.60;;;;;;5033721;28;20382;-71
2022/09/05 08:32:01;;;;;;;22.42;4.07;;;36.00;91.50;;;;;;5033846;28;20021;-71
2022/09/05 08:34:41;;;;;;;15.70;3.08;;;35.80;92.40;;;;;;5034386;28;20026;-72
2022/09/05 08:37:11;;;;;;;12.82;3.67;;;35.70;92.40;;;;;;5034100;28;20116;-71
2022/09/05 08:39:40;;;;;;;18.77;3.53;;;35.80;92.30;;;;;;5033617;28;20024;-72
2022/09/05 08:42:21;;;;;;;14.68;3.70;;;36.00;91.60;;;;;;5033423;28;20032;-72
2022/09/05 08:45:19;;;;;;;19.23;4.03;;;36.10;91.40;;;;;;5034055;28;20095;-72
2022/09/05 08:48:05;;;;;;;19.55;4.45;;;36.20;91.40;;;;;;5033798;28;20033;-73
2022/09/05 08:50:41;;;;;;;23.05;4.38;;;36.40;92.30;;;;;;5033596;28;20033;-72
2022/09/05 08:53:28;;;;;;;14.15;3.70;;;36.10;93.00;;;;;;5033126;28;20025;-73
2022/09/05 08:56:18;;;;;;;16.88;3.33;;;36.00;93.30;;;;;;5033523;28;20118;-72
2022/09/05 08:58:46;;;;;;;20.08;3.40;;;36.10;93.60;;;;;;5033661;28;20048;-73
2022/09/05 09:01:32;;;;;;;17.80;3.92;;;36.20;94.40;;;;;;5033831;28;20108;-73
2022/09/05 09:04:06;;;;;;;13.85;3.17;;;35.90;96.20;;;;;;5033050;28;20027;-71
2022/09/05 09:06:51;;;;;;;15.05;3.20;;;35.80;96.70;;;;;;5032565;28;20060;-72
2022/09/05 09:09:36;;;;;;;;;;;35.70;96.50;;;;;;5033397;28;20025;-72
2022/09/05 09:12:26;;;;;;;18.13;3.40;;;35.50;96.20;;;;;;5032341;28;19905;-72
2022/09/05 09:15:04;;;;;;;17.80;3.53;;;35.30;96.00;;;;;;5033139;28;20029;-72
2022/09/05 09:17:44;;;;;;;17.23;3.72;;;35.40;96.80;;;;;;5032663;28;20074;-71
2022/09/05 09:20:16;;;;;;;17.35;3.80;;;35.30;96.70;;;;;;5032639;28;20128;-72
2022/09/05 09:22:45;;;;;;;16.73;3.20;;;35.20;95.10;;;;;;5032942;28;20454;-71
2022/09/05 09:25:22;;;;;;;14.88;3.22;;;34.60;94.70;;;;;;5030977;28;20037;-72
2022/09/05 09:28:09;;;;;;;16.50;3.45;;;34.20;95.00;;;;;;5032541;28;20021;-72
2022/09/05 09:30:40;;;;;;;12.77;2.72;;;34.30;94.90;;;;;;5031190;28;20043;-72
2022/09/05 09:33:11;;;;;;;17.13;2.95;;;34.40;94.90;;;;;;5032918;28;20032;-74
2022/09/05 09:36:04;;;;;;;14.27;3.13;;;34.40;94.50;;;;;;5033153;28;20025;-72
2022/09/05 09:38:54;;;;;;;17.98;3.05;;;34.50;94.60;;;;;;5031418;28;20571;-72
2022/09/05 09:42:01;;;;;;;19.35;3.35;;;34.60;94.90;;;;;;5033259;28;20507;-72
2022/09/05 09:44:51;;;;;;;16.52;3.15;;;34.30;95.40;;;;;;5011196;28;20029;-72
2022/09/05 09:47:54;;;;;;;12.35;2.90;;;34.00;96.30;;;;;;5010758;28;20451;-72
2022/09/05 09:50:52;;;;;;;17.50;3.28;;;34.10;96.60;;;;;;4989288;28;20041;-72
2022/09/05 09:53:44;;;;;;;16.17;3.00;;;34.00;97.10;;;;;;5010884;28;20034;-73
2022/09/05 09:56:37;;;;;;;19.67;2.88;;;33.90;98.20;;;;;;5010424;28;20107;-72
2022/09/05 09:59:35;;;;;;;21.25;3.38;;;33.90;98.90;;;;;;4993576;28;20030;-72
2022/09/05 10:02:42;;;;;;;14.98;3.35;;;33.80;99.50;;;;;;5010389;28;20034;-72
2022/09/05 10:05:42;;;;;;;17.13;3.38;;;33.20;99.90;;;;;;4990456;28;20050;-72
2022/09/05 10:08:08;;;;;;;17.55;3.50;;;33.20;99.90;;;;;;5010165;28;20493;-72
2022/09/05 10:10:50;;;;;;;;;;;33.10;99.90;;;;;;5010655;28;20046;-72
2022/09/05 10:13:34;;;;;;;20.75;3.83;;;33.10;99.90;;;;;;5009825;28;20329;-73
2022/09/05 10:16:18;;;;;;;20.00;4.00;;;33.30;99.90;;;;;;5028838;28;20045;-73
2022/09/05 10:19:25;;;;;;;15.65;2.90;;;33.20;99.90;;;;;;5035607;28;20021;-73
2022/09/05 10:22:29;;;;;;;15.35;3.55;;;33.20;99.90;;;;;;5035290;28;20170;-71
2022/09/05 10:25:10;;;;;;;16.77;3.47;;;33.20;99.90;;;;;;5035908;28;20481;-73
2022/09/05 10:27:37;;;;;;;19.95;3.83;;;33.10;99.90;;;;;;5034749;28;20312;-71
2022/09/05 10:30:24;;;;;;;20.73;3.97;;;32.80;99.90;;;;;;5035201;28;20468;-71
2022/09/05 10:32:59;;;;;;;19.00;3.40;;;32.80;99.90;;;;;;5035603;28;20339;-71
2022/09/05 10:35:38;;;;;;;17.05;4.13;;;32.60;99.90;;;;;;5035783;28;20022;-71
2022/09/05 10:38:15;;;;;;;19.25;4.07;;;32.50;99.90;;;;;;5035481;28;20049;-71
2022/09/05 10:40:49;;;;;;;25.65;4.28;;;32.50;99.90;;;;;;5035946;28;20481;-71
2022/09/05 10:43:30;;;;;;;18.33;3.92;;;32.80;99.90;;;;;;5035323;28;20343;-71
2022/09/05 10:45:56;;;;;;;24.38;3.95;;;32.80;99.90;;;;;;5035750;28;20095;-71
2022/09/05 10:48:51;;;;;;;23.42;3.80;;;32.80;99.90;;;;;;5033913;28;20037;-71
2022/09/05 10:51:54;;;;;;;20.27;4.57;;;32.80;99.90;;;;;;5033954;28;20453;-73
2022/09/05 10:55:04;;;;;;;22.80;3.85;;;32.90;99.90;;;;;;5032545;28;20029;-72
2022/09/05 10:57:40;;;;;;;17.75;3.72;;;33.00;99.90;;;;;;5023940;28;20069;-71
2022/09/05 11:00:26;;;;;;;;;;;33.10;99.90;;;;;;5034436;28;20346;-72
2022/09/05 11:02:57;;;;;;;16.50;3.53;;;33.20;99.90;;;;;;5034600;28;20361;-72
2022/09/05 11:05:29;;;;;;;20.45;3.75;;;33.30;99.90;;;;;;5034942;28;20090;-72
2022/09/05 11:08:01;;;;;;;19.48;3.75;;;33.40;99.90;;;;;;5033400;28;20429;-72
2022/09/05 11:10:58;;;;;;;20.40;4.07;;;33.40;99.90;;;;;;5034525;28;20099;-72
2022/09/05 11:13:50;;;;;;;17.92;3.63;;;33.50;99.90;;;;;;5035089;28;20079;-72
2022/09/05 11:17:00;;;;;;;23.98;4.38;;;33.40;99.90;;;;;;5034917;28;20474;-72
2022/09/05 11:19:41;;;;;;;17.08;3.53;;;33.20;99.90;;;;;;5030668;28;20038;-72
2022/09/05 11:22:11;;;;;;;18.55;4.78;;;33.20;99.90;;;;;;5036229;28;20344;-72
2022/09/05 11:24:54;;;;;;;21.35;4.43;;;33.40;99.90;;;;;;5035606;28;20105;-72
2022/09/05 11:27:42;;;;;;;20.05;4.25;;;33.60;99.90;;;;;;5035732;28;20030;-72
2022/09/05 11:30:21;;;;;;;22.48;4.30;;;33.60;99.90;;;;;;5034994;28;20054;-72
2022/09/05 11:33:11;;;;;;;22.48;3.75;;;33.80;99.90;;;;;;5035484;28;20029;-73
2022/09/05 11:36:06;;;;;;;20.35;4.20;;;33.70;99.90;;;;;;5035409;28;20037;-72
2022/09/05 11:38:48;;;;;;;19.85;4.15;;;33.40;99.90;;;;;;5035149;28;20068;-72
2022/09/05 11:41:20;;;;;;;17.73;3.95;;;33.40;99.90;;;;;;5035344;28;20052;-72
2022/09/05 11:43:56;;;;;;;14.10;3.65;;;33.30;99.90;;;;;;5035591;28;20061;-72
2022/09/05 11:46:32;;;;;;;19.20;3.95;;;33.30;99.90;;;;;;5035336;28;20041;-72
2022/09/05 11:49:07;;;;;;;21.13;3.97;;;33.40;99.90;;;;;;5035204;28;20095;-73
2022/09/05 11:52:15;;;;;;;14.63;3.72;;;33.70;99.90;;;;;;5034705;28;20022;-72
2022/09/05 11:54:56;;;;;;;17.60;4.32;;;33.30;99.90;;;;;;5034861;28;20024;-72
2022/09/05 11:57:48;;;;;;;16.98;3.50;;;33.20;99.90;;;;;;5034970;28;20038;-72
2022/09/05 12:00:19;;;;;;;21.85;3.95;;;32.80;99.90;;;;;;5034625;28;20056;-71
2022/09/05 12:02:56;;;;;;;19.50;3.67;;;32.40;99.90;;;;;;5034760;28;20060;-72
2022/09/05 12:05:53;;;;;;;20.20;3.72;;;32.40;99.90;;;;;;5033131;28;20097;-72
2022/09/05 12:08:46;;;;;;;21.80;4.22;;;32.50;99.90;;;;;;5034126;28;20104;-72
2022/09/05 12:11:31;;;;;;;24.48;4.03;;;32.50;99.90;;;;;;5034763;28;20457;-72
2022/09/05 12:14:34;;;;;;;18.58;4.28;;;32.50;99.90;;;;;;5034056;28;20039;-72
2022/09/05 12:17:34;;;;;;;19.92;3.97;;;32.40;99.90;;;;;;5034094;28;20262;-72
2022/09/05 12:20:24;;;;;;;24.30;4.13;;;32.30;99.90;;;;;;5034874;28;20060;-72
2022/09/05 12:23:19;;;;;;;18.38;3.92;;;32.20;99.90;;;;;;5034670;28;20380;-72
2022/09/05 12:26:11;;;;;;;18.35;4.07;;;32.50;99.90;;;;;;5034368;28;20508;-72
2022/09/05 12:28:37;;;;;;;21.27;3.92;;;32.60;99.90;;;;;;5034471;28;20397;-72
2022/09/05 12:31:11;;;;;;;20.42;3.75;;;32.70;99.90;;;;;;5034170;28;20033;-72
2022/09/05 12:33:37;;;;;;;16.48;4.38;;;32.80;99.90;;;;;;5034646;28;20032;-72
2022/09/05 12:36:13;;;;;;;19.52;4.43;;;32.80;99.90;;;;;;5034381;28;20025;-72
2022/09/05 12:38:49;;;;;;;21.05;4.22;;;32.90;99.90;;;;;;5034696;28;20033;-72
2022/09/05 12:41:22;;;;;;;22.00;4.43;;;33.00;99.90;;;;;;5033526;28;20092;-72
2022/09/05 12:43:54;;;;;;;21.67;4.05;;;33.20;99.90;;;;;;5034664;28;20108;-72
2022/09/05 12:46:32;;;;;;;20.85;4.30;;;33.30;99.90;;;;;;5034061;28;20095;-72
2022/09/05 12:49:07;;;;;;;24.20;3.95;;;33.20;99.90;;;;;;5032316;28;20033;-72
2022/09/05 12:51:41;;;;;;;18.20;4.72;;;33.20;99.90;;;;;;5033531;28;20116;-72
2022/09/05 12:54:16;;;;;;;18.92;4.20;;;33.20;99.90;;;;;;5032917;28;20021;-72
2022/09/05 12:57:09;;;;;;;22.50;4.50;;;33.10;99.90;;;;;;5033115;28;20029;-72
2022/09/05 12:59:37;;;;;;;20.92;5.03;;;32.90;99.90;;;;;;5033588;28;20097;-73
2022/09/05 13:02:07;;;;;;;21.75;4.15;;;32.70;99.90;;;;;;5031389;28;20033;-72
2022/09/05 13:04:42;;;;;;;17.42;4.22;;;32.40;99.90;;;;;;5033253;28;20017;-72
2022/09/05 13:07:41;;;;;;;20.17;4.32;;;32.30;99.90;;;;;;5032933;28;20108;-72
2022/09/05 13:10:13;;;;;;;20.30;4.32;;;32.50;99.90;;;;;;5033319;28;20029;-72
2022/09/05 13:12:53;;;;;;;18.92;3.45;;;32.70;99.90;;;;;;5033077;28;20442;-72
2022/09/05 13:15:34;;;;;;;19.35;4.43;;;32.80;99.90;;;;;;5033040;28;20390;-72
2022/09/05 13:18:24;;;;;;;17.15;4.00;;;32.90;99.90;;;;;;5033209;28;20441;-72
2022/09/05 13:21:09;;;;;;;20.80;3.70;;;33.00;99.90;;;;;;5033649;28;20025;-72
2022/09/05 13:23:53;;;;;;;;;;;33.20;99.90;;;;;;5033891;28;20032;-73
2022/09/05 13:26:24;;;;;;;24.27;4.22;;;33.20;99.90;;;;;;5033779;28;19912;-72
2022/09/05 13:29:01;;;;;;;18.27;4.38;;;33.30;99.90;;;;;;5033168;28;20135;-72
2022/09/05 13:31:59;;;;;;;21.92;4.40;;;33.20;99.90;;;;;;5033325;28;20335;-72
2022/09/05 13:34:28;;;;;;;18.95;4.78;;;32.90;99.90;;;;;;5033241;28;20028;-72
2022/09/05 13:36:58;;;;;;;17.20;4.20;;;32.90;99.90;;;;;;5032904;28;20080;-72
2022/09/05 13:39:27;;;;;;;17.23;3.97;;;33.00;99.90;;;;;;5033399;28;20033;-72
2022/09/05 13:42:02;;;;;;;18.60;3.45;;;32.80;99.90;;;;;;5033105;28;20026;-73
2022/09/05 13:44:32;;;;;;;35.58;5.30;;;32.50;99.90;;;;;;5033641;28;20037;-72
2022/09/05 13:47:13;;;;;;;23.35;4.10;;;32.30;99.90;;;;;;5033306;28;20022;-72
2022/09/05 13:49:51;;;;;;;19.00;3.72;;;32.30;99.90;;;;;;5032694;28;20096;-71
2022/09/05 13:52:39;;;;;;;19.13;3.88;;;32.60;99.90;;;;;;5032006;28;20041;-71
2022/09/05 13:55:36;;;;;;;22.70;4.97;;;32.70;99.90;;;;;;5032225;28;20368;-71
2022/09/05 13:58:33;;;;;;;16.95;4.07;;;32.80;99.90;;;;;;5032100;28;20048;-72
2022/09/05 14:01:11;;;;;;;20.00;3.60;;;33.10;99.90;;;;;;5032053;28;20053;-72
2022/09/05 14:03:54;;;;;;;17.90;3.60;;;33.30;99.90;;;;;;5032296;28;20100;-72